Rangedala, Sweden

9:06 PM CEST on July 29, 2014 (GMT +0200)
IVSTRAGT45 Elev 607 ft | 57.79 °N, 13.12 °E | Change Station

Current weather conditions updated 2 seconds ago

Clear
Clear
67.3 °F
Feels Like 67.3 °F
N
3.8
Wind Variable Wind from SW
Gusts 3.8 mph

Tomorrow is forecast to be Much Cooler than today.

Today
High -- | Low -- °F
--% Chance of Precip.
Yesterday
High -- | Low -- °F
Precip. -- in
4:55 AM 9:30 PM
Waxing Crescent, 7% visible
Pressure 29.80 in
Visibility -9999.0 miles
Clouds
Dew Point 56 °F
Humidity 68%
Rainfall 0.00 in
Snow Depth Not available.
UV Not available.
Pollen Not available.
Air Quality Not available.
Flu Activity Not available.
METAR ESGG 291850Z 29004KT CAVOK 20/15 Q1009

More Conditions Fewer Conditions

Pressure 29.80 in
Visibility -9999.0 miles
Clouds
Dew Point 56 °F
Humidity 68%
Rainfall 0.00 in
Snow Depth Not available.
UV Not available.
Pollen Not available.
Air Quality Not available.
Flu Activity Not available.
METAR ESGG 291850Z 29004KT CAVOK 20/15 Q1009

More Conditions Fewer Conditions

10-Day Weather Forecast

Almanac

Astronomy

Jul. 29, 2014 Rise Set
Actual Time 4:55 AM CEST 9:30 PM CEST
Civil Twilight 4:00 AM CEST 10:25 PM CEST
Nautical Twilight 2:24 AM CEST 11:57 PM CEST
Astronomical Twilight Sun does not rise Sun does not rise
Moon 8:00 AM CEST 9:44 PM CEST
Length of Visible Light 18h 24m
Length of Day
16h 35m
Tomorrow will be 4m 7s shorter.
Waxing Crescent, 7% of the Moon is Illuminated
Today
Waxing Crescent
Aug 3
First Quarter
Aug 10
Full
Aug 17
Last Quarter
Aug 25
New

Today's Extremes

Country Highs Country Lows

Community

WunderPhotos

Upload Photos

1,738,829 photos uploaded!

WunderBlogs® & News

By Dr. Jeff Masters
Director of Meteorology, Weather Underground
By Kari Strenfel
Meteorologist, Weather Underground
By Christopher C. Burt
Weather Historian, Weather Underground
July 29, 2014
July 29, 2014
July 29, 2014

Nearby

Snow Depth

Not available.

Earthquake Activity

City Distance Mag. Time & Date
No recent earthquake activity has been reported nearby.
Minimum magnitude displayed is 2.5.

Coastal Water Temperatures

Place Temperature
No Stations Reporting

Nearby Weather Stations

Station Location Temp. Heat Index Dew Point Humidity Wind Precip. Elev Updated Type
Rångedala 67.3 °F - 56 °F 68% SW  at  3.8 mph 0.00 in / hr 607 ft 9:06 PM CEST Rapid Fire
Ulricehamn, Gallstad 69.1 °F - 55 °F 60% NW  at  0.2 mph 0.00 in / hr 696 ft 9:00 PM CEST Normal
Boras, Langhem 71.8 °F 77 °F 53 °F 51% North  at  1.6 mph 0.00 in / hr 607 ft 9:06 PM CEST Rapid Fire
Tollsjo (Bollebygd) 69.4 °F - 47 °F 45% NNE  at  0.0 mph 0.00 in / hr 413 ft 9:06 PM CEST Rapid Fire

Show More Stations Show Fewer Stations